WetterOnline ( https://www.wetteronline.de )

Wetter aktuell Bochum

Aktuelles Wetter: Essen (161m)

6-stündlich | Neueste Meldungen
Ortszeit Temperatur Wetter
Sa, 20.04. 20:00 6.2° C Regen
Sa, 20.04. 14:00 6.2° C leichter Regen
Sa, 20.04. 8:00 4.9° C bedeckt
Sa, 20.04. 2:00 4.9° C bedeckt
Fr, 19.04. 20:00 6.7° C wolkig
Fr, 19.04. 14:00 9.9° C bewölkt
Fr, 19.04. 8:00 5.5° C leichter Regen
Fr, 19.04. 2:00 6.4° C bedeckt
Ortszeit Temperatur Wetter
Sa, 20.04. 22:30 5.4° C bedeckt
Sa, 20.04. 22:20 5.4° C bedeckt
Sa, 20.04. 22:10 5.4° C leichter Regen
Sa, 20.04. 22:00 6.6° C leichter Regen
Sa, 20.04. 21:50 6.6° C leichter Regen
Sa, 20.04. 21:40 6.5° C Sprühregen
Sa, 20.04. 21:30 6.5° C bedeckt
Sa, 20.04. 21:00 6.4° C bedeckt
Sa, 20.04. 20:30 6.4° C bewölkt
Sa, 20.04. 20:00 6.2° C Regen
Sa, 20.04. 19:30 7.7° C bedeckt
Ortszeit Relative Feuchte Sichtweite
Sa, 20.04. 20:00 88% 45 km
Sa, 20.04. 14:00 86% 4.7 km
Sa, 20.04. 8:00 93% 30 km
Sa, 20.04. 2:00 91% 35 km
Fr, 19.04. 20:00 82% 50 km
Fr, 19.04. 14:00 83% 60 km
Fr, 19.04. 8:00 97% 3.1 km
Fr, 19.04. 2:00 72% 50 km
Ortszeit Relative Feuchte Sichtweite
Sa, 20.04. 22:30 89% 60 km
Sa, 20.04. 22:20 89% -
Sa, 20.04. 22:10 89% -
Sa, 20.04. 22:00 86% 12 km
Sa, 20.04. 21:50 86% -
Sa, 20.04. 21:40 91% -
Sa, 20.04. 21:30 90% 35 km
Sa, 20.04. 21:00 89% 40 km
Sa, 20.04. 20:30 89% 50 km
Sa, 20.04. 20:00 88% 45 km
Sa, 20.04. 19:30 81% 50 km
Ortszeit Niederschlagsmenge Niederschlagsart
Sa, 20.04. 20:00 3 l/m2 in 12 Std. Regen
Sa, 20.04. 14:00 2 l/m2 in 6 Std. Regen
Sa, 20.04. 8:00 0.3 l/m2 in 12 Std. Regen
Sa, 20.04. 2:00 0.3 l/m2 in 6 Std. Regen
Fr, 19.04. 20:00 19 l/m2 in 12 Std. Regen
Fr, 19.04. 14:00 14 l/m2 in 6 Std. Regen
Fr, 19.04. 8:00 7 l/m2 in 12 Std. Regen
Fr, 19.04. 2:00 0.0 l/m2 in 6 Std. -
Ortszeit Niederschlagsmenge Niederschlagsart
Sa, 20.04. 22:30 0.3 l/m2 in 30 Min Schneeregen
Sa, 20.04. 22:20 keine Meldung -
Sa, 20.04. 22:10 keine Meldung -
Sa, 20.04. 22:00 <0.05 l/m2 in 1 Std. Regen
Sa, 20.04. 21:50 keine Meldung -
Sa, 20.04. 21:40 keine Meldung -
Sa, 20.04. 21:30 <0.05 l/m2 in 30 Min Schnee
Sa, 20.04. 21:00 <0.05 l/m2 in 1 Std. Regen
Sa, 20.04. 20:30 <0.05 l/m2 in 30 Min Schneeregen
Sa, 20.04. 20:00 1.4 l/m2 in 1 Std. Regen
Sa, 20.04. 19:30 0.2 l/m2 in 30 Min Schneeregen
Ortszeit Stärke Spitze Richtung
km/h Bft. km/h Grad Sektor
Sa, 20.04. 20:00 15 3 43 320° NW
Sa, 20.04. 14:00 14 3 40 320° NW
Sa, 20.04. 8:00 13 3 24 310° NW
Sa, 20.04. 2:00 13 3 41 310° NW
Fr, 19.04. 20:00 18 3 72 310° NW
Fr, 19.04. 14:00 11 2 54 280° W
Fr, 19.04. 8:00 22 4 44 220° SW
Fr, 19.04. 2:00 13 3 22 220° SW
Ortszeit Stärke Spitze Richtung
km/h Bft. km/h Grad Sektor
Sa, 20.04. 22:30 18 3 40 330° NW
Sa, 20.04. 22:20 18 3 - 330° NW
Sa, 20.04. 22:10 20 4 - 330° NW
Sa, 20.04. 22:00 13 3 35 310° NW
Sa, 20.04. 21:50 13 3 - 310° NW
Sa, 20.04. 21:40 7 2 - 310° NW
Sa, 20.04. 21:30 7 2 18 320° NW
Sa, 20.04. 21:00 7 2 25 310° NW
Sa, 20.04. 20:30 9 2 24 310° NW
Sa, 20.04. 20:00 15 3 35 320° NW
Sa, 20.04. 19:30 11 2 29 300° NW
Ortszeit Untergrenze Bedeckung Gattung
total tief tief mittel hoch
Sa, 20.04. 20:00 330 m 8/8 8/8 - - -
Sa, 20.04. 14:00 420 m 6/8 6/8 - - -
Sa, 20.04. 8:00 180 m 8/8 8/8 - - -
Sa, 20.04. 2:00 300 m 8/8 8/8 - - -
Fr, 19.04. 20:00 630 m 5/8 5/8 - - -
Fr, 19.04. 14:00 450 m 8/8 6/8 - - -
Fr, 19.04. 8:00 150 m 8/8 8/8 - - -
Fr, 19.04. 2:00 1140 m 8/8 8/8 - - -
Ortszeit Bedeckungsgrad in Achtel und Wolkenuntergrenze
Sa, 20.04. 22:30 2(420m) 7(930m) 8(1140m)
Sa, 20.04. 22:20 2(420m) 7(930m) 8(1140m)
Sa, 20.04. 22:10 7
Sa, 20.04. 22:00 3(540m) 7(900m) 8(1800m)
Sa, 20.04. 21:50 3(540m) 7(900m) 8(1800m)
Sa, 20.04. 21:40 8
Sa, 20.04. 21:30 2(570m) 7(1170m) 8(1500m)
Sa, 20.04. 21:00 2(570m) 8(1050m) 8(1470m)
Sa, 20.04. 20:30 7(1200m)
Sa, 20.04. 20:00 2(330m) 3(600m) 8(1110m)
Sa, 20.04. 19:30 3(540m) 7(840m) 8(1500m)
Ortszeit Luftdruck NN (hPa) Tendenz (hPa in 3 Std.)
Sa, 20.04. 20:00 1021 - 0,2
Sa, 20.04. 14:00 1021 + 0,7
Sa, 20.04. 8:00 1018 + 2,0
Sa, 20.04. 2:00 1015 + 2,0
Fr, 19.04. 20:00 1010 + 1,7
Fr, 19.04. 14:00 1006 - 1,0
Fr, 19.04. 8:00 1010 - 3,0
Fr, 19.04. 2:00 1016 - 2,3
Ortszeit Luftdruck NN (hPa) Tendenz (hPa in 3 Std.)
Sa, 20.04. 22:30 1021 + 1,1
Sa, 20.04. 22:20 1021 keine Meldung
Sa, 20.04. 22:10 1021 keine Meldung
Sa, 20.04. 22:00 1021 + 0,9
Sa, 20.04. 21:50 1021 keine Meldung
Sa, 20.04. 21:40 1021 keine Meldung
Sa, 20.04. 21:30 1021 + 0,6
Sa, 20.04. 21:00 1021 + 0,2
Sa, 20.04. 20:30 1021 0,0
Sa, 20.04. 20:00 1021 - 0,2
Sa, 20.04. 19:30 1020 - 0,9
Ortszeit Schneehöhe (cm)
Sa, 20.04. 20:00 0
Sa, 20.04. 14:00 0
Sa, 20.04. 8:00 0
Sa, 20.04. 2:00 0
Fr, 19.04. 20:00 0
Fr, 19.04. 14:00 0
Fr, 19.04. 8:00 0
Fr, 19.04. 2:00 0
Ortszeit Schneehöhe (cm)
Sa, 20.04. 22:30 0
Sa, 20.04. 22:20 0
Sa, 20.04. 22:10 -
Sa, 20.04. 22:00 0
Sa, 20.04. 21:50 0
Sa, 20.04. 21:40 -
Sa, 20.04. 21:30 0
Sa, 20.04. 21:00 0
Sa, 20.04. 20:30 0
Sa, 20.04. 20:00 0
Sa, 20.04. 19:30 0
Link zu dieser Seite / Seite empfehlen

Das Wetter in ...